Time;durP1;ratioP1;P1;durP2;ratioP2;P2;SDS_P1;SDS_P2;PMS_P1;PMS_P2;Temp;Humidity;BMP_temperature;BMP_pressure;BME280_temperature;BME280_humidity;BME280_pressure;Samples;Min_cycle;Max_cycle;Signal;HPM_P1;HPM_P2
2023/12/19 00:00:01;;;;;;;54.78;28.20;;;;;;;4.30;100.00;102344.56;1015035;29;20295;-55
2023/12/19 00:00:35;;;;;;;54.97;32.65;;;;;;;4.28;100.00;102351.81;1014876;29;20300;-55
2023/12/19 00:01:07;;;;;;;58.08;31.10;;;;;;;4.32;100.00;102350.53;1015339;29;20806;-55
2023/12/19 00:01:44;;;;;;;62.05;32.20;;;;;;;4.30;100.00;102349.84;1013203;29;20383;-55
2023/12/19 00:02:15;;;;;;;51.55;28.42;;;;;;;4.34;100.00;102348.59;1015358;29;20291;-55
2023/12/19 00:02:47;;;;;;;57.40;30.52;;;;;;;4.26;100.00;102351.09;1013242;29;20805;-55
2023/12/19 00:03:20;;;;;;;49.47;30.40;;;;;;;4.25;100.00;102344.16;1015039;29;20311;-55
2023/12/19 00:03:52;;;;;;;52.08;30.38;;;;;;;4.30;100.00;102341.94;1014751;29;20394;-55
2023/12/19 00:04:23;;;;;;;52.75;31.45;;;;;;;4.35;100.00;102345.81;1015034;29;20869;-55
2023/12/19 00:04:55;;;;;;;50.92;30.45;;;;;;;4.33;100.00;102349.56;1014870;29;20292;-55
2023/12/19 00:05:27;;;;;;;51.25;30.40;;;;;;;4.31;100.00;102348.88;1014780;29;20320;-55
2023/12/19 00:05:58;;;;;;;53.88;30.95;;;;;;;4.32;100.00;102343.47;1015019;29;20328;-55
2023/12/19 00:06:30;;;;;;;50.92;28.33;;;;;;;4.32;100.00;102337.34;1014942;29;20624;-54
2023/12/19 00:07:02;;;;;;;55.28;31.20;;;;;;;4.33;100.00;102344.31;1015207;29;20315;-55
2023/12/19 00:07:34;;;;;;;58.83;30.23;;;;;;;4.27;100.00;102343.06;1014838;29;20385;-56
2023/12/19 00:08:07;;;;;;;52.50;28.52;;;;;;;4.31;100.00;102340.97;1014946;29;20310;-55
2023/12/19 00:08:39;;;;;;;55.97;32.35;;;;;;;4.33;100.00;102346.94;1015009;29;20303;-56
2023/12/19 00:09:11;;;;;;;55.28;29.98;;;;;;;4.35;100.00;102343.19;1014720;29;20825;-55
2023/12/19 00:09:44;;;;;;;50.03;30.38;;;;;;;4.35;100.00;102347.63;1014941;29;20550;-56
2023/12/19 00:10:16;;;;;;;61.55;30.88;;;;;;;4.37;100.00;102361.50;1014904;29;20957;-56
2023/12/19 00:10:47;;;;;;;54.38;29.92;;;;;;;4.36;100.00;102359.84;1015039;29;20933;-55
2023/12/19 00:11:19;;;;;;;54.85;28.95;;;;;;;4.41;100.00;102362.09;1015461;29;20675;-55
2023/12/19 00:11:51;;;;;;;59.30;30.77;;;;;;;4.33;100.00;102365.41;1015025;29;20295;-55
2023/12/19 00:12:22;;;;;;;56.92;30.73;;;;;;;4.36;100.00;102354.56;1014732;29;21155;-55
2023/12/19 00:12:55;;;;;;;55.72;30.58;;;;;;;4.37;100.00;102361.50;1015014;29;20303;-55
2023/12/19 00:13:27;;;;;;;58.13;32.08;;;;;;;4.38;100.00;102357.91;1014851;29;20315;-55
2023/12/19 00:13:59;;;;;;;52.97;29.83;;;;;;;4.30;100.00;102352.50;1014811;29;20326;-55
2023/12/19 00:14:30;;;;;;;57.03;30.63;;;;;;;4.30;100.00;102350.69;1015051;29;20300;-55
2023/12/19 00:15:02;;;;;;;55.03;31.52;;;;;;;4.32;100.00;102355.81;1015202;29;20300;-55
2023/12/19 00:15:35;;;;;;;56.53;30.75;;;;;;;4.32;100.00;102348.75;1012985;29;20673;-55
2023/12/19 00:16:07;;;;;;;52.60;28.90;;;;;;;4.35;100.00;102347.63;1015429;29;20327;-55
2023/12/19 00:16:39;;;;;;;66.28;32.63;;;;;;;4.37;100.00;102355.41;1014530;29;20436;-55
2023/12/19 00:17:10;;;;;;;54.75;29.77;;;;;;;4.38;100.00;102352.63;1014908;29;20312;-55
2023/12/19 00:17:43;;;;;;;51.00;28.40;;;;;;;4.36;100.00;102357.22;1018576;29;20323;-55
2023/12/19 00:18:14;;;;;;;48.83;29.35;;;;;;;4.35;100.00;102348.47;1018350;29;20310;-55
2023/12/19 00:18:46;;;;;;;56.78;30.30;;;;;;;4.40;100.00;102350.72;1016896;29;20299;-54
2023/12/19 00:19:18;;;;;;;53.53;29.85;;;;;;;4.36;100.00;102344.03;1014771;29;20854;-54
2023/12/19 00:19:50;;;;;;;57.15;29.73;;;;;;;4.38;100.00;102352.63;1015272;29;20807;-55
2023/12/19 00:20:21;;;;;;;54.28;31.27;;;;;;;4.41;100.00;102347.09;1013079;29;20328;-56
2023/12/19 00:20:53;;;;;;;56.33;30.08;;;;;;;4.40;100.00;102356.00;1014863;29;20304;-56
2023/12/19 00:21:25;;;;;;;53.88;31.05;;;;;;;4.41;100.00;102341.00;1014901;29;20795;-55
2023/12/19 00:21:57;;;;;;;51.20;29.13;;;;;;;4.40;100.00;102349.88;1014957;29;20795;-55
2023/12/19 00:22:28;;;;;;;55.83;29.98;;;;;;;4.38;100.00;102349.97;1014968;29;20814;-55
2023/12/19 00:23:00;;;;;;;51.20;29.30;;;;;;;4.33;100.00;102344.31;1014757;29;21160;-55
2023/12/19 00:23:32;;;;;;;53.75;31.05;;;;;;;4.41;100.00;102343.63;1015382;29;20336;-55
2023/12/19 00:24:04;;;;;;;56.22;27.70;;;;;;;4.32;100.00;102338.19;1015104;29;20296;-55
2023/12/19 00:24:37;;;;;;;51.80;28.67;;;;;;;4.38;100.00;102342.06;1014683;29;20671;-55
2023/12/19 00:25:09;;;;;;;52.45;29.58;;;;;;;4.42;100.00;102332.09;1014965;29;20740;-55
2023/12/19 00:25:41;;;;;;;48.70;28.35;;;;;;;4.40;100.00;102332.25;1014825;29;20303;-55
2023/12/19 00:26:13;;;;;;;58.88;29.98;;;;;;;4.41;100.00;102338.34;1014885;29;20786;-55
2023/12/19 00:26:44;;;;;;;54.55;27.73;;;;;;;4.43;100.00;102333.78;1014918;29;20316;-56
2023/12/19 00:27:16;;;;;;;46.40;27.55;;;;;;;4.42;100.00;102327.66;1015080;29;20299;-55
2023/12/19 00:27:47;;;;;;;49.83;29.20;;;;;;;4.45;100.00;102329.19;1015017;29;20319;-55
2023/12/19 00:28:19;;;;;;;54.55;29.58;;;;;;;4.46;100.00;102331.69;1015178;29;20663;-55
2023/12/19 00:28:51;;;;;;;56.22;29.65;;;;;;;4.44;100.00;102330.16;1014501;29;20651;-55
2023/12/19 00:29:22;;;;;;;50.63;27.17;;;;;;;4.43;100.00;102326.69;1018183;29;20314;-55
2023/12/19 00:29:54;;;;;;;48.03;27.98;;;;;;;4.43;100.00;102331.97;1018450;29;20299;-57
2023/12/19 00:30:26;;;;;;;46.50;26.98;;;;;;;4.44;100.00;102336.25;1018489;29;20409;-55
2023/12/19 00:30:58;;;;;;;46.63;28.25;;;;;;;4.46;100.00;102339.59;1015872;29;20318;-55
2023/12/19 00:31:29;;;;;;;52.05;29.35;;;;;;;4.43;100.00;102334.59;1015117;29;20308;-55
2023/12/19 00:32:01;;;;;;;54.58;28.98;;;;;;;4.43;100.00;102331.97;1015009;29;20295;-55
2023/12/19 00:32:33;;;;;;;44.45;28.92;;;;;;;4.45;100.00;102327.38;1014399;29;20314;-54
2023/12/19 00:33:05;;;;;;;53.90;27.42;;;;;;;4.45;100.00;102330.03;1014556;29;20861;-55
2023/12/19 00:33:36;;;;;;;46.63;27.83;;;;;;;4.46;100.00;102334.31;1014971;29;20358;-55
2023/12/19 00:34:08;;;;;;;49.05;27.38;;;;;;;4.48;100.00;102332.38;1014763;29;20818;-56
2023/12/19 00:34:40;;;;;;;48.47;29.10;;;;;;;4.45;100.00;102329.19;1014814;29;20296;-55
2023/12/19 00:35:12;;;;;;;54.35;29.88;;;;;;;4.43;100.00;102313.50;1015019;29;20296;-55
2023/12/19 00:35:43;;;;;;;54.58;30.05;;;;;;;4.44;100.00;102323.06;1015162;29;20304;-55
2023/12/19 00:36:20;;;;;;;50.05;28.02;;;;;;;4.48;100.00;102307.78;1014856;29;20996;-55
2023/12/19 00:36:52;;;;;;;50.40;28.40;;;;;;;4.51;100.00;102313.63;1015267;29;20315;-56
2023/12/19 00:37:23;;;;;;;50.47;27.75;;;;;;;4.52;100.00;102307.38;1014843;29;20308;-56
2023/12/19 00:37:55;;;;;;;49.90;26.63;;;;;;;4.48;100.00;102306.00;1014658;29;20318;-55
2023/12/19 00:38:27;;;;;;;50.47;27.75;;;;;;;4.53;100.00;102314.31;1014950;29;20304;-54
2023/12/19 00:38:58;;;;;;;46.47;28.90;;;;;;;4.53;100.00;102313.47;1014938;29;20304;-55
2023/12/19 00:39:30;;;;;;;51.45;30.33;;;;;;;4.53;100.00;102316.94;1014743;29;21358;-55
2023/12/19 00:40:03;;;;;;;45.05;26.35;;;;;;;4.53;100.00;102314.31;1014902;29;20316;-56
2023/12/19 00:40:36;;;;;;;44.17;26.33;;;;;;;4.57;100.00;102309.59;1014678;29;20370;-55
2023/12/19 00:41:08;;;;;;;55.85;27.77;;;;;;;4.50;100.00;102309.31;1015258;29;20315;-55
2023/12/19 00:41:40;;;;;;;43.67;27.90;;;;;;;4.50;100.00;102311.13;1012898;29;20305;-55
2023/12/19 00:42:11;;;;;;;54.80;30.35;;;;;;;4.50;100.00;102309.31;1014939;29;20666;-55
2023/12/19 00:42:43;;;;;;;48.45;27.38;;;;;;;4.51;100.00;102296.97;1014730;29;20304;-55
2023/12/19 00:43:15;;;;;;;47.20;27.25;;;;;;;4.46;100.00;102286.81;1014836;29;20347;-55
2023/12/19 00:43:47;;;;;;;47.38;28.08;;;;;;;4.51;100.00;102299.59;1014965;29;20806;-55
2023/12/19 00:44:18;;;;;;;47.22;27.38;;;;;;;4.53;100.00;102287.09;1014594;29;20304;-55
2023/12/19 00:44:50;;;;;;;48.33;28.17;;;;;;;4.51;100.00;102292.50;1015191;29;20304;-55
2023/12/19 00:45:21;;;;;;;42.85;25.60;;;;;;;4.43;100.00;102275.72;1013139;29;20317;-55
2023/12/19 00:45:53;;;;;;;51.50;27.25;;;;;;;4.47;100.00;102287.66;1014785;29;20319;-55
2023/12/19 00:46:25;;;;;;;54.17;28.13;;;;;;;4.50;100.00;102288.22;1014769;29;21176;-55
2023/12/19 00:46:56;;;;;;;54.05;29.40;;;;;;;4.41;100.00;102277.69;1014993;29;20373;-55
2023/12/19 00:47:28;;;;;;;46.15;27.58;;;;;;;4.44;100.00;102283.50;1014892;29;20330;-55
2023/12/19 00:48:00;;;;;;;49.88;27.23;;;;;;;4.51;100.00;102289.88;1014781;29;20308;-54
2023/12/19 00:48:31;;;;;;;49.55;28.35;;;;;;;4.50;100.00;102285.56;1014892;29;20300;-55
2023/12/19 00:49:03;;;;;;;54.33;28.63;;;;;;;4.49;100.00;102273.34;1015195;29;20344;-55
2023/12/19 00:49:35;;;;;;;50.80;28.15;;;;;;;4.48;100.00;102273.50;1014818;29;20315;-55
2023/12/19 00:50:10;;;;;;;48.85;26.88;;;;;;;4.49;100.00;102286.53;1014671;29;20308;-55
2023/12/19 00:50:41;;;;;;;53.53;28.33;;;;;;;4.55;100.00;102274.59;1014882;29;20304;-55
2023/12/19 00:51:13;;;;;;;50.72;28.73;;;;;;;4.53;100.00;102269.44;1014885;29;20315;-55
2023/12/19 00:51:45;;;;;;;48.67;28.02;;;;;;;4.52;100.00;102272.22;1014601;29;20304;-55
2023/12/19 00:52:16;;;;;;;52.60;28.90;;;;;;;4.52;100.00;102273.06;1013630;29;20327;-55
2023/12/19 00:52:48;;;;;;;46.45;26.13;;;;;;;4.50;100.00;102266.28;1014989;29;20656;-55
2023/12/19 00:53:20;;;;;;;49.38;27.40;;;;;;;4.52;100.00;102265.16;1015129;29;20513;-55
2023/12/19 00:53:51;;;;;;;46.17;27.45;;;;;;;4.56;100.00;102265.69;1012992;29;20395;-55
2023/12/19 00:54:23;;;;;;;53.78;29.15;;;;;;;4.52;100.00;102259.88;1014923;29;20330;-55
2023/12/19 00:54:55;;;;;;;51.00;29.05;;;;;;;4.54;100.00;102262.38;1014667;29;20339;-55
2023/12/19 00:55:26;;;;;;;48.60;28.30;;;;;;;4.54;100.00;102252.66;1014776;29;20999;-55
2023/12/19 00:55:58;;;;;;;46.20;27.77;;;;;;;4.58;100.00;102258.47;1014338;29;20315;-55
2023/12/19 00:56:30;;;;;;;48.97;28.27;;;;;;;4.56;100.00;102261.25;1014808;29;20300;-55
2023/12/19 00:57:01;;;;;;;50.05;26.08;;;;;;;4.51;100.00;102255.56;1015373;29;20292;-55
2023/12/19 00:57:33;;;;;;;45.10;26.40;;;;;;;4.57;100.00;102268.19;1015054;29;20300;-55
2023/12/19 00:58:05;;;;;;;47.20;27.35;;;;;;;4.60;100.00;102264.44;1014879;29;20308;-56
2023/12/19 00:58:37;;;;;;;51.88;27.75;;;;;;;4.51;100.00;102258.22;1014719;29;20315;-55
2023/12/19 00:59:09;;;;;;;45.38;26.02;;;;;;;4.54;100.00;102262.38;1014949;29;20300;-55
2023/12/19 00:59:40;;;;;;;51.08;28.88;;;;;;;4.53;100.00;102261.53;1014858;29;20347;-55
2023/12/19 01:00:13;;;;;;;48.03;27.58;;;;;;;4.58;100.00;102256.66;1014883;29;20355;-55
2023/12/19 01:00:44;;;;;;;49.92;27.60;;;;;;;4.61;100.00;102263.47;1014725;29;20336;-55
2023/12/19 01:01:21;;;;;;;44.17;26.92;;;;;;;4.60;100.00;102261.78;1015297;29;20296;-55
2023/12/19 01:01:53;;;;;;;49.45;27.67;;;;;;;4.60;100.00;102267.91;1014870;29;20304;-55
2023/12/19 01:02:25;;;;;;;49.60;26.70;;;;;;;4.66;100.00;102261.25;1015125;29;20304;-55
2023/12/19 01:02:56;;;;;;;49.05;28.83;;;;;;;4.60;100.00;102262.63;1012609;29;20303;-55
2023/12/19 01:03:28;;;;;;;50.00;27.23;;;;;;;4.60;100.00;102256.53;1014626;29;20304;-55
2023/12/19 01:04:00;;;;;;;54.28;29.52;;;;;;;4.62;100.00;102255.41;1014406;29;20316;-55
2023/12/19 01:04:31;;;;;;;54.13;29.88;;;;;;;4.64;100.00;102253.44;1014595;29;20720;-55
2023/12/19 01:05:03;;;;;;;49.15;26.42;;;;;;;4.65;100.00;102260.38;1014015;29;20318;-55
2023/12/19 01:05:35;;;;;;;46.42;27.92;;;;;;;4.67;100.00;102256.81;1014769;29;20308;-55
2023/12/19 01:06:07;;;;;;;53.38;28.52;;;;;;;4.65;100.00;102259.56;1015218;29;20786;-55
2023/12/19 01:06:38;;;;;;;56.05;28.73;;;;;;;4.65;100.00;102249.84;1012993;29;20297;-56
2023/12/19 01:07:10;;;;;;;53.35;27.42;;;;;;;4.61;100.00;102243.19;1014801;29;20666;-55
2023/12/19 01:07:42;;;;;;;51.00;27.52;;;;;;;4.66;100.00;102250.69;1014676;29;20795;-55
2023/12/19 01:08:13;;;;;;;47.53;26.67;;;;;;;4.64;100.00;102253.44;1014483;29;20314;-55
2023/12/19 01:08:45;;;;;;;47.65;28.70;;;;;;;4.64;100.00;102242.88;1014344;29;20307;-55
2023/12/19 01:09:17;;;;;;;50.55;28.08;;;;;;;4.62;100.00;102257.22;1014509;29;20299;-55
2023/12/19 01:09:49;;;;;;;50.55;29.17;;;;;;;4.59;100.00;102258.31;1015237;29;20288;-55
2023/12/19 01:10:20;;;;;;;43.90;27.55;;;;;;;4.58;100.00;102256.66;1015132;29;20304;-55
2023/12/19 01:10:53;;;;;;;45.15;26.83;;;;;;;4.62;100.00;102260.69;1014773;29;20307;-55
2023/12/19 01:11:24;;;;;;;54.17;26.77;;;;;;;4.65;100.00;102260.38;1014756;29;20311;-55
2023/12/19 01:11:58;;;;;;;50.25;27.35;;;;;;;4.68;100.00;102269.03;1014621;29;20436;-55
2023/12/19 01:12:30;;;;;;;52.45;26.27;;;;;;;4.65;100.00;102275.38;1014912;29;20358;-55
2023/12/19 01:13:02;;;;;;;46.55;26.27;;;;;;;4.67;100.00;102272.63;1014822;29;20339;-55
2023/12/19 01:13:33;;;;;;;43.40;26.33;;;;;;;4.67;100.00;102262.91;1014899;29;21403;-54
2023/12/19 01:14:05;;;;;;;49.92;28.60;;;;;;;4.67;100.00;102273.47;1014890;29;20300;-55
2023/12/19 01:14:37;;;;;;;52.53;28.90;;;;;;;4.62;100.00;102265.94;1015281;29;20383;-55
2023/12/19 01:15:09;;;;;;;46.60;26.77;;;;;;;4.65;100.00;102260.38;1014223;29;20300;-54
2023/12/19 01:15:40;;;;;;;43.20;27.60;;;;;;;4.56;100.00;102273.63;1018233;29;20319;-54
2023/12/19 01:16:13;;;;;;;50.10;27.65;;;;;;;4.65;100.00;102275.38;1015902;29;20652;-54
2023/12/19 01:16:45;;;;;;;43.00;26.92;;;;;;;4.65;100.00;102264.84;1014583;29;20304;-55
2023/12/19 01:17:16;;;;;;;56.15;28.23;;;;;;;4.60;100.00;102254.72;1014370;29;20304;-53
2023/12/19 01:17:48;;;;;;;46.40;28.02;;;;;;;4.62;100.00;102257.22;1014907;29;20300;-54
2023/12/19 01:18:20;;;;;;;45.92;26.52;;;;;;;4.62;100.00;102260.69;1015250;29;20296;-55
2023/12/19 01:18:52;;;;;;;44.05;27.83;;;;;;;4.63;100.00;102257.06;1015035;29;20292;-55
2023/12/19 01:19:24;;;;;;;47.67;28.23;;;;;;;4.61;100.00;102253.72;1014763;29;20304;-55
2023/12/19 01:19:55;;;;;;;51.97;26.63;;;;;;;4.64;100.00;102249.97;1014932;29;20674;-55
2023/12/19 01:20:29;;;;;;;48.13;28.45;;;;;;;4.64;100.00;102253.44;1014369;29;20336;-54
2023/12/19 01:21:01;;;;;;;52.83;27.13;;;;;;;4.65;100.00;102255.09;1014738;29;20307;-55
2023/12/19 01:21:32;;;;;;;48.65;27.25;;;;;;;4.62;100.00;102255.41;1015000;29;20644;-55
2023/12/19 01:22:04;;;;;;;53.50;28.63;;;;;;;4.64;100.00;102256.09;1014634;29;20307;-55
2023/12/19 01:22:36;;;;;;;51.50;28.25;;;;;;;4.65;100.00;102265.66;1014922;29;20303;-55
2023/12/19 01:23:07;;;;;;;47.15;25.63;;;;;;;4.58;100.00;102256.66;1015144;29;20319;-55
2023/12/19 01:23:39;;;;;;;42.75;27.85;;;;;;;4.62;100.00;102254.56;1014735;29;20396;-54
2023/12/19 01:24:10;;;;;;;48.47;28.80;;;;;;;4.69;100.00;102260.97;1014715;29;20770;-55
2023/12/19 01:24:42;;;;;;;56.78;27.73;;;;;;;4.70;100.00;102251.25;1014998;29;20382;-56
2023/12/19 01:25:14;;;;;;;47.10;27.88;;;;;;;4.68;100.00;102255.84;1013877;29;20328;-56
2023/12/19 01:25:45;;;;;;;61.40;28.55;;;;;;;4.64;100.00;102245.53;1014515;29;20299;-55
2023/12/19 01:26:17;;;;;;;51.03;27.50;;;;;;;4.68;100.00;102242.63;1014287;29;20326;-55
2023/12/19 01:26:57;;;;;;;50.00;27.77;;;;;;;4.72;100.00;102244.00;1014057;29;20292;-55
2023/12/19 01:27:28;;;;;;;52.28;27.60;;;;;;;4.70;100.00;102253.88;1014298;29;20296;-55
2023/12/19 01:28:00;;;;;;;47.17;27.88;;;;;;;4.64;100.00;102252.63;1014732;29;20296;-55
2023/12/19 01:28:42;;;;;;;48.78;27.83;;;;;;;4.67;100.00;102246.25;1014963;29;20845;-55
2023/12/19 01:29:14;;;;;;;48.95;27.27;;;;;;;4.66;100.00;102261.25;1014702;29;20431;-55
2023/12/19 01:29:45;;;;;;;44.97;25.90;;;;;;;4.67;100.00;102251.53;1014814;29;20786;-56
2023/12/19 01:30:17;;;;;;;51.15;28.60;;;;;;;4.62;100.00;102244.84;1018034;29;20573;-56
2023/12/19 01:30:49;;;;;;;51.45;27.67;;;;;;;4.63;100.00;102241.22;1014484;29;20398;-56
2023/12/19 01:31:21;;;;;;;43.58;27.15;;;;;;;4.63;100.00;102249.16;1017711;29;20845;-55
2023/12/19 01:31:53;;;;;;;48.45;27.38;;;;;;;4.67;100.00;102254.16;1016369;29;20318;-55
2023/12/19 01:32:24;;;;;;;41.83;26.02;;;;;;;4.66;100.00;102261.25;1014715;29;20339;-55
2023/12/19 01:32:56;;;;;;;45.10;27.10;;;;;;;4.69;100.00;102265.41;1014771;29;20774;-55
2023/12/19 01:33:28;;;;;;;51.22;27.05;;;;;;;4.69;100.00;102255.69;1014917;29;20300;-56
2023/12/19 01:33:59;;;;;;;46.38;27.45;;;;;;;4.69;100.00;102252.22;1014685;29;20836;-55
2023/12/19 01:34:31;;;;;;;50.67;28.00;;;;;;;4.69;100.00;102254.84;1014642;29;20403;-55
2023/12/19 01:35:06;;;;;;;49.40;28.30;;;;;;;4.60;100.00;102246.78;1014316;29;20375;-56
2023/12/19 01:35:38;;;;;;;53.05;28.38;;;;;;;4.64;100.00;102242.88;1014898;29;20299;-55
2023/12/19 01:36:10;;;;;;;52.17;27.48;;;;;;;4.61;100.00;102245.81;1014691;29;20806;-55
2023/12/19 01:36:42;;;;;;;52.35;27.02;;;;;;;4.62;100.00;102242.19;1014485;29;20312;-55
2023/12/19 01:37:28;;;;;;;43.10;26.23;;;;;;;4.64;100.00;102232.34;1014131;29;20304;-56
2023/12/19 01:38:00;;;;;;;45.50;26.35;;;;;;;4.69;100.00;102239.03;1014717;29;20824;-55
2023/12/19 01:38:31;;;;;;;44.42;26.55;;;;;;;4.71;100.00;102234.44;1014749;29;20311;-55
2023/12/19 01:39:04;;;;;;;44.53;27.70;;;;;;;4.66;100.00;102240.13;1014870;29;20439;-55
2023/12/19 01:39:36;;;;;;;44.83;26.27;;;;;;;4.65;100.00;102235.81;1015165;29;20315;-55
2023/12/19 01:40:08;;;;;;;49.85;28.88;;;;;;;4.63;100.00;102241.22;1015401;29;20383;-56
2023/12/19 01:40:40;;;;;;;46.85;27.15;;;;;;;4.63;100.00;102241.22;1015380;29;20304;-55
2023/12/19 01:41:12;;;;;;;46.40;27.90;;;;;;;4.67;100.00;102243.63;1015566;29;20308;-54
2023/12/19 01:41:43;;;;;;;43.55;26.40;;;;;;;4.67;100.00;102243.63;1014904;29;20322;-55
2023/12/19 01:42:15;;;;;;;48.58;28.63;;;;;;;4.69;100.00;102244.28;1014960;29;20304;-56
2023/12/19 01:42:46;;;;;;;41.58;26.20;;;;;;;4.63;100.00;102235.94;1015601;29;20376;-55
2023/12/19 01:43:19;;;;;;;53.00;27.77;;;;;;;4.62;100.00;102239.56;1015535;29;20309;-55
2023/12/19 01:43:59;;;;;;;50.67;29.15;;;;;;;4.63;100.00;102235.94;1015668;29;20358;-55
2023/12/19 01:44:30;;;;;;;41.38;25.92;;;;;;;4.62;100.00;102239.56;1015645;29;20304;-55
2023/12/19 01:45:14;;;;;;;46.28;28.55;;;;;;;4.64;100.00;102237.63;1015217;29;20310;-55
2023/12/19 01:45:48;;;;;;;46.38;27.42;;;;;;;4.67;100.00;102233.06;1015680;29;20319;-55
2023/12/19 01:46:20;;;;;;;46.65;25.77;;;;;;;4.69;100.00;102231.94;1015241;29;20307;-55
2023/12/19 01:46:52;;;;;;;49.10;27.15;;;;;;;4.64;100.00;102237.63;1015543;29;20303;-55
2023/12/19 01:47:23;;;;;;;47.95;27.13;;;;;;;4.63;100.00;102237.75;1015641;29;20303;-56
2023/12/19 01:47:55;;;;;;;53.28;27.63;;;;;;;4.60;100.00;102245.97;1015524;29;20348;-56
2023/12/19 01:48:27;;;;;;;54.97;27.80;;;;;;;4.60;100.00;102238.88;1015327;29;20474;-56
2023/12/19 01:49:00;;;;;;;50.70;28.73;;;;;;;4.62;100.00;102239.56;1015351;29;20398;-55
2023/12/19 01:49:32;;;;;;;45.45;26.23;;;;;;;4.60;100.00;102236.25;1011449;29;20319;-55
2023/12/19 01:50:07;;;;;;;53.63;27.48;;;;;;;4.64;100.00;102232.34;1011334;29;20798;-55
2023/12/19 01:50:38;;;;;;;46.45;27.25;;;;;;;4.64;100.00;102242.88;1007198;29;20298;-56
2023/12/19 01:51:11;;;;;;;52.65;28.45;;;;;;;4.65;100.00;102243.72;1012316;29;20304;-55
2023/12/19 01:51:43;;;;;;;49.88;28.50;;;;;;;4.67;100.00;102243.63;1015259;29;20367;-55
2023/12/19 01:52:15;;;;;;;50.40;28.52;;;;;;;4.70;100.00;102238.03;1015069;29;20312;-56
2023/12/19 01:52:52;;;;;;;42.72;26.35;;;;;;;4.69;100.00;102239.84;1018372;29;20311;-56
2023/12/19 01:53:24;;;;;;;51.95;28.63;;;;;;;4.62;100.00;102244.00;1014826;29;20363;-54
2023/12/19 01:53:55;;;;;;;56.35;28.55;;;;;;;4.67;100.00;102243.63;1015197;29;20308;-53
2023/12/19 01:54:27;;;;;;;45.90;25.83;;;;;;;4.65;100.00;102249.84;1014715;29;20326;-54
2023/12/19 01:54:59;;;;;;;56.13;27.20;;;;;;;4.65;100.00;102244.56;1014762;29;20885;-54
2023/12/19 01:55:30;;;;;;;48.50;28.10;;;;;;;4.61;100.00;102248.47;1015548;29;20291;-55
2023/12/19 01:56:03;;;;;;;52.17;28.63;;;;;;;4.61;100.00;102240.53;1015838;29;20315;-55
2023/12/19 01:56:34;;;;;;;49.38;27.48;;;;;;;4.62;100.00;102239.56;1015772;29;20346;-56
2023/12/19 01:57:06;;;;;;;49.83;27.80;;;;;;;4.59;100.00;102245.13;1015440;29;20300;-55
2023/12/19 01:57:38;;;;;;;49.03;28.35;;;;;;;4.59;100.00;102255.69;1015284;29;20311;-56
2023/12/19 01:58:10;;;;;;;48.55;29.27;;;;;;;4.59;100.00;102237.22;1015368;29;20688;-56
2023/12/19 01:58:42;;;;;;;49.58;29.15;;;;;;;4.62;100.00;102244.00;1018906;29;20845;-56
2023/12/19 01:59:14;;;;;;;52.20;26.23;;;;;;;4.61;100.00;102231.78;1018066;29;20327;-56
2023/12/19 01:59:45;;;;;;;51.90;30.20;;;;;;;4.61;100.00;102237.91;1016066;29;20655;-56
2023/12/19 02:00:17;;;;;;;53.33;30.02;;;;;;;4.57;100.00;102233.88;1015802;29;20304;-56
2023/12/19 02:00:49;;;;;;;61.47;29.92;;;;;;;4.62;100.00;102228.19;1015423;29;20300;-56
2023/12/19 02:01:21;;;;;;;51.03;26.67;;;;;;;4.64;100.00;102242.88;1015294;29;20307;-56
2023/12/19 02:01:54;;;;;;;52.47;28.58;;;;;;;4.64;100.00;102227.06;1015131;29;20307;-55
2023/12/19 02:02:26;;;;;;;50.17;28.33;;;;;;;4.65;100.00;102223.44;1011063;29;20337;-56
2023/12/19 02:02:57;;;;;;;45.95;27.13;;;;;;;4.65;100.00;102218.16;1011272;29;20312;-55
2023/12/19 02:03:30;;;;;;;54.03;29.58;;;;;;;4.70;100.00;102227.47;1009745;29;20332;-55
2023/12/19 02:04:02;;;;;;;56.15;27.80;;;;;;;4.64;100.00;102226.22;1011966;29;20694;-56
2023/12/19 02:04:36;;;;;;;60.85;29.23;;;;;;;4.65;100.00;102225.25;1014573;29;20299;-56
2023/12/19 02:05:08;;;;;;;51.95;28.60;;;;;;;4.61;100.00;102222.06;1015234;29;20304;-55
2023/12/19 02:05:41;;;;;;;63.28;29.85;;;;;;;4.60;100.00;102233.59;1015297;29;20303;-55
2023/12/19 02:06:14;;;;;;;48.80;27.25;;;;;;;4.60;100.00;102230.97;1015136;29;20304;-55
2023/12/19 02:06:45;;;;;;;52.15;29.63;;;;;;;4.61;100.00;102224.72;1015345;29;20316;-55
2023/12/19 02:07:17;;;;;;;53.70;27.58;;;;;;;4.60;100.00;102230.13;1015321;29;20363;-55
2023/12/19 02:07:49;;;;;;;61.55;29.58;;;;;;;4.68;100.00;102232.06;1018980;29;20311;-55
2023/12/19 02:08:21;;;;;;;53.75;28.33;;;;;;;4.67;100.00;102219.84;1018840;29;20330;-56
2023/12/19 02:08:53;;;;;;;50.05;30.30;;;;;;;4.68;100.00;102227.63;1019075;29;20303;-55
2023/12/19 02:09:24;;;;;;;55.00;28.00;;;;;;;4.65;100.00;102228.72;1018411;29;20306;-55
2023/12/19 02:09:56;;;;;;;49.65;27.92;;;;;;;4.68;100.00;102226.81;1015787;29;20292;-55
2023/12/19 02:10:28;;;;;;;60.83;28.70;;;;;;;4.69;100.00;102228.47;1015331;29;20398;-55
2023/12/19 02:10:59;;;;;;;49.85;27.27;;;;;;;4.71;100.00;102224.69;1015392;29;20802;-55
2023/12/19 02:11:31;;;;;;;51.22;28.33;;;;;;;4.67;100.00;102225.13;1015522;29;20303;-55
2023/12/19 02:12:03;;;;;;;53.60;27.42;;;;;;;4.72;100.00;102217.63;1015477;29;20312;-55
2023/12/19 02:12:37;;;;;;;52.35;28.88;;;;;;;4.64;100.00;102211.22;1016241;29;20762;-55
2023/12/19 02:13:09;;;;;;;56.58;29.02;;;;;;;4.71;100.00;102219.41;1015174;29;20386;-55
2023/12/19 02:13:41;;;;;;;61.63;31.38;;;;;;;4.69;100.00;102220.53;1018653;29;20311;-55
2023/12/19 02:14:13;;;;;;;45.38;27.38;;;;;;;4.69;100.00;102217.91;1017788;29;20300;-55
2023/12/19 02:14:45;;;;;;;51.03;30.20;;;;;;;4.73;100.00;102214.81;1013353;29;20319;-55
2023/12/19 02:15:16;;;;;;;56.63;29.63;;;;;;;4.74;100.00;102207.75;1015071;29;20340;-55
2023/12/19 02:15:48;;;;;;;50.45;29.05;;;;;;;4.69;100.00;102210.00;1014986;29;20675;-55
2023/12/19 02:16:20;;;;;;;52.55;29.10;;;;;;;4.70;100.00;102204.56;1016118;29;20312;-55
2023/12/19 02:16:52;;;;;;;52.03;28.92;;;;;;;4.68;100.00;102200.41;1018505;29;20304;-55
2023/12/19 02:17:24;;;;;;;53.70;29.13;;;;;;;4.65;100.00;102207.59;1015206;29;20651;-54
2023/12/19 02:17:55;;;;;;;44.30;25.70;;;;;;;4.70;100.00;102203.72;1015893;29;20387;-55
2023/12/19 02:18:27;;;;;;;58.22;28.63;;;;;;;4.68;100.00;102205.69;1013729;29;20753;-56
2023/12/19 02:19:02;;;;;;;52.47;29.42;;;;;;;4.69;100.00;102207.34;1014982;29;20390;-55
2023/12/19 02:19:45;;;;;;;53.97;28.27;;;;;;;4.62;100.00;102205.25;1015664;29;20894;-56
2023/12/19 02:20:19;;;;;;;42.58;25.70;;;;;;;4.65;100.00;102212.06;1015497;29;20304;-55
2023/12/19 02:20:51;;;;;;;53.70;27.67;;;;;;;4.70;100.00;102209.00;1015318;29;20407;-54
2023/12/19 02:21:22;;;;;;;46.67;27.63;;;;;;;4.72;100.00;102207.88;1015285;29;20312;-55
2023/12/19 02:21:54;;;;;;;55.70;28.73;;;;;;;4.73;100.00;102208.72;1015027;29;20296;-55
2023/12/19 02:22:27;;;;;;;45.72;28.02;;;;;;;4.72;100.00;102205.25;1015678;29;20536;-54
2023/12/19 02:22:58;;;;;;;51.80;27.98;;;;;;;4.70;100.00;102201.09;1015670;29;20405;-55
2023/12/19 02:23:30;;;;;;;46.75;26.27;;;;;;;4.72;100.00;102205.25;1015349;29;20312;-55
2023/12/19 02:24:02;;;;;;;49.58;27.80;;;;;;;4.68;100.00;102205.69;1015273;29;20387;-54
2023/12/19 02:24:34;;;;;;;45.63;27.95;;;;;;;4.69;100.00;102202.91;1015360;29;20375;-56
2023/12/19 02:25:06;;;;;;;47.35;28.00;;;;;;;4.69;100.00;102215.25;1015329;29;20703;-56
2023/12/19 02:25:37;;;;;;;49.15;26.95;;;;;;;4.65;100.00;102214.69;1015013;29;20814;-55
2023/12/19 02:26:09;;;;;;;46.35;27.17;;;;;;;4.69;100.00;102212.63;1015854;29;20307;-55